Palm Springs (PSP/KPSP)

Information

Location
Palm Springs, CA
Local Time
18:45 / 6:45 pm
GMT Time
02:45 / 2:45 am
Gates
Unassigned
No FAA reported delays
METAR KPSP 170153Z 28006KT 10SM CLR 16/M01 A3006 RMK AO2 SLP178 T01611006
TAF KPSP 162332Z 1700/1724 VRB05KT P6SM SCT200 FM170800 33008KT P6SM SKC FM171700 VRB05KT P6SM SKC
  • No charts available